sensor_id;sensor_type;location;lat;lon;timestamp;pressure;altitude;pressure_sealevel;temperature;humidity
38786;BME280;24535;45.508;12.252;2023-02-02T00:01:31;102011.44;;;5.90;63.09
38786;BME280;24535;45.508;12.252;2023-02-02T00:03:57;102009.78;;;5.88;62.87
38786;BME280;24535;45.508;12.252;2023-02-02T00:06:25;102009.03;;;5.83;62.63
38786;BME280;24535;45.508;12.252;2023-02-02T00:08:51;101999.47;;;5.82;62.59
38786;BME280;24535;45.508;12.252;2023-02-02T00:11:18;102009.16;;;5.78;62.94
38786;BME280;24535;45.508;12.252;2023-02-02T00:13:44;102008.31;;;5.78;63.14
38786;BME280;24535;45.508;12.252;2023-02-02T00:18:53;102008.31;;;5.78;62.53
38786;BME280;24535;45.508;12.252;2023-02-02T00:21:20;102015.31;;;5.77;63.14
38786;BME280;24535;45.508;12.252;2023-02-02T00:23:46;102017.97;;;5.76;62.60
38786;BME280;24535;45.508;12.252;2023-02-02T00:26:11;102018.09;;;5.69;62.98
38786;BME280;24535;45.508;12.252;2023-02-02T00:28:37;102007.66;;;5.69;62.76
38786;BME280;24535;45.508;12.252;2023-02-02T00:31:03;102011.19;;;5.67;62.98
38786;BME280;24535;45.508;12.252;2023-02-02T00:33:28;101991.25;;;5.63;62.59
38786;BME280;24535;45.508;12.252;2023-02-02T00:35:54;101995.72;;;5.59;62.88
38786;BME280;24535;45.508;12.252;2023-02-02T00:38:19;102012.22;;;5.61;63.12
38786;BME280;24535;45.508;12.252;2023-02-02T00:40:45;102016.53;;;5.64;63.19
38786;BME280;24535;45.508;12.252;2023-02-02T00:43:11;102018.28;;;5.63;63.05
38786;BME280;24535;45.508;12.252;2023-02-02T00:45:37;102016.66;;;5.59;62.85
38786;BME280;24535;45.508;12.252;2023-02-02T00:48:02;102029.72;;;5.59;63.21
38786;BME280;24535;45.508;12.252;2023-02-02T00:50:29;102023.66;;;5.57;62.49
38786;BME280;24535;45.508;12.252;2023-02-02T00:52:54;102028.09;;;5.54;62.67
38786;BME280;24535;45.508;12.252;2023-02-02T00:55:20;102022.09;;;5.50;62.82
38786;BME280;24535;45.508;12.252;2023-02-02T00:57:46;102032.59;;;5.49;62.98
38786;BME280;24535;45.508;12.252;2023-02-02T01:00:18;102040.47;;;5.47;63.39
38786;BME280;24535;45.508;12.252;2023-02-02T01:02:45;102033.56;;;5.44;63.21
38786;BME280;24535;45.508;12.252;2023-02-02T01:05:11;102036.28;;;5.40;63.04
38786;BME280;24535;45.508;12.252;2023-02-02T01:07:38;102040.72;;;5.36;63.05
38786;BME280;24535;45.508;12.252;2023-02-02T01:10:05;102035.56;;;5.33;63.05
38786;BME280;24535;45.508;12.252;2023-02-02T01:12:31;102027.00;;;5.28;62.90
38786;BME280;24535;45.508;12.252;2023-02-02T01:14:56;102029.66;;;5.25;62.75
38786;BME280;24535;45.508;12.252;2023-02-02T01:17:22;102033.19;;;5.24;63.08
38786;BME280;24535;45.508;12.252;2023-02-02T01:19:47;102037.56;;;5.24;63.29
38786;BME280;24535;45.508;12.252;2023-02-02T01:22:13;102035.00;;;5.20;63.38
38786;BME280;24535;45.508;12.252;2023-02-02T01:24:38;102048.97;;;5.19;63.67
38786;BME280;24535;45.508;12.252;2023-02-02T01:27:04;102051.47;;;5.24;63.62
38786;BME280;24535;45.508;12.252;2023-02-02T01:29:29;102040.19;;;5.22;63.55
38786;BME280;24535;45.508;12.252;2023-02-02T01:31:55;102048.06;;;5.20;63.00
38786;BME280;24535;45.508;12.252;2023-02-02T01:34:20;102040.34;;;5.16;63.53
38786;BME280;24535;45.508;12.252;2023-02-02T01:36:46;102035.22;;;5.11;63.30
38786;BME280;24535;45.508;12.252;2023-02-02T01:39:11;102030.84;;;5.12;63.26
38786;BME280;24535;45.508;12.252;2023-02-02T01:41:39;102031.88;;;5.05;63.48
38786;BME280;24535;45.508;12.252;2023-02-02T01:47:09;102039.75;;;5.03;63.30
38786;BME280;24535;45.508;12.252;2023-02-02T01:49:36;102044.19;;;5.00;63.55
38786;BME280;24535;45.508;12.252;2023-02-02T01:52:03;102036.31;;;5.03;63.71
38786;BME280;24535;45.508;12.252;2023-02-02T01:54:34;102033.69;;;5.03;63.34
38786;BME280;24535;45.508;12.252;2023-02-02T01:57:04;102041.53;;;5.01;63.56
38786;BME280;24535;45.508;12.252;2023-02-02T01:59:34;102031.03;;;5.04;63.76
38786;BME280;24535;45.508;12.252;2023-02-02T02:02:01;102031.06;;;5.03;63.68
38786;BME280;24535;45.508;12.252;2023-02-02T02:04:28;102023.31;;;5.00;63.41
38786;BME280;24535;45.508;12.252;2023-02-02T02:06:54;102022.50;;;4.96;63.77
38786;BME280;24535;45.508;12.252;2023-02-02T02:09:20;102023.47;;;4.92;63.13
38786;BME280;24535;45.508;12.252;2023-02-02T02:11:45;102026.13;;;4.90;63.29
38786;BME280;24535;45.508;12.252;2023-02-02T02:14:12;102016.56;;;4.89;63.37
38786;BME280;24535;45.508;12.252;2023-02-02T02:23:24;102013.16;;;4.87;63.76
38786;BME280;24535;45.508;12.252;2023-02-02T02:34:17;102014.28;;;4.76;62.88
38786;BME280;24535;45.508;12.252;2023-02-02T02:39:32;102010.91;;;4.70;63.42
38786;BME280;24535;45.508;12.252;2023-02-02T02:42:06;102004.00;;;4.68;63.25
38786;BME280;24535;45.508;12.252;2023-02-02T02:44:34;102005.75;;;4.67;63.66
38786;BME280;24535;45.508;12.252;2023-02-02T02:47:00;101995.38;;;4.64;63.77
38786;BME280;24535;45.508;12.252;2023-02-02T02:49:26;101998.88;;;4.63;63.70
38786;BME280;24535;45.508;12.252;2023-02-02T02:51:53;101985.88;;;4.62;63.62
38786;BME280;24535;45.508;12.252;2023-02-02T02:54:24;101986.75;;;4.62;64.13
38786;BME280;24535;45.508;12.252;2023-02-02T02:57:05;101997.13;;;4.64;63.63
38786;BME280;24535;45.508;12.252;2023-02-02T03:02:48;101996.34;;;4.60;63.79
38786;BME280;24535;45.508;12.252;2023-02-02T03:05:52;101997.22;;;4.59;63.95
38786;BME280;24535;45.508;12.252;2023-02-02T03:08:39;102002.50;;;4.58;63.48
38786;BME280;24535;45.508;12.252;2023-02-02T03:11:10;102003.41;;;4.55;63.44
38786;BME280;24535;45.508;12.252;2023-02-02T03:13:37;101987.75;;;4.55;62.96
38786;BME280;24535;45.508;12.252;2023-02-02T03:16:04;101986.00;;;4.56;64.18
38786;BME280;24535;45.508;12.252;2023-02-02T03:18:31;101986.78;;;4.59;64.13
38786;BME280;24535;45.508;12.252;2023-02-02T03:20:57;101988.56;;;4.59;63.52
38786;BME280;24535;45.508;12.252;2023-02-02T03:23:22;102003.31;;;4.60;63.32
38786;BME280;24535;45.508;12.252;2023-02-02T03:25:48;102006.78;;;4.60;63.66
38786;BME280;24535;45.508;12.252;2023-02-02T03:28:15;102004.16;;;4.60;63.44
38786;BME280;24535;45.508;12.252;2023-02-02T03:30:42;101980.69;;;4.60;64.02
38786;BME280;24535;45.508;12.252;2023-02-02T03:33:09;101981.50;;;4.62;63.63
38786;BME280;24535;45.508;12.252;2023-02-02T03:35:36;101981.50;;;4.62;63.58
38786;BME280;24535;45.508;12.252;2023-02-02T03:38:01;101988.38;;;4.66;63.44
38786;BME280;24535;45.508;12.252;2023-02-02T03:40:28;102000.56;;;4.66;63.66
38786;BME280;24535;45.508;12.252;2023-02-02T03:42:54;101990.91;;;4.69;63.51
38786;BME280;24535;45.508;12.252;2023-02-02T03:45:20;101993.50;;;4.69;63.43
38786;BME280;24535;45.508;12.252;2023-02-02T03:47:45;102001.44;;;4.66;62.76
38786;BME280;24535;45.508;12.252;2023-02-02T03:50:11;101995.53;;;4.58;63.36
38786;BME280;24535;45.508;12.252;2023-02-02T03:52:37;101988.59;;;4.56;63.20
38786;BME280;24535;45.508;12.252;2023-02-02T03:55:02;101994.75;;;4.53;62.75
38786;BME280;24535;45.508;12.252;2023-02-02T03:57:28;102004.38;;;4.51;62.92
38786;BME280;24535;45.508;12.252;2023-02-02T03:59:53;102003.53;;;4.49;63.37
38786;BME280;24535;45.508;12.252;2023-02-02T04:02:19;102000.16;;;4.44;63.28
38786;BME280;24535;45.508;12.252;2023-02-02T04:04:44;101999.34;;;4.42;63.41
38786;BME280;24535;45.508;12.252;2023-02-02T04:07:10;101994.19;;;4.39;63.05
38786;BME280;24535;45.508;12.252;2023-02-02T04:09:35;102003.78;;;4.37;63.77
38786;BME280;24535;45.508;12.252;2023-02-02T04:12:01;102004.63;;;4.37;63.57
38786;BME280;24535;45.508;12.252;2023-02-02T04:14:26;102001.16;;;4.37;63.95
38786;BME280;24535;45.508;12.252;2023-02-02T04:16:52;102013.34;;;4.38;64.54
38786;BME280;24535;45.508;12.252;2023-02-02T04:19:17;102014.25;;;4.35;64.23
38786;BME280;24535;45.508;12.252;2023-02-02T04:21:43;102009.00;;;4.38;63.64
38786;BME280;24535;45.508;12.252;2023-02-02T04:24:12;102013.31;;;4.39;64.31
38786;BME280;24535;45.508;12.252;2023-02-02T04:26:39;102011.59;;;4.38;63.93
38786;BME280;24535;45.508;12.252;2023-02-02T04:29:05;101995.94;;;4.38;63.88
38786;BME280;24535;45.508;12.252;2023-02-02T04:31:30;102008.13;;;4.38;64.21
38786;BME280;24535;45.508;12.252;2023-02-02T04:33:56;102013.34;;;4.38;64.26
38786;BME280;24535;45.508;12.252;2023-02-02T04:36:22;102012.44;;;4.39;64.17
38786;BME280;24535;45.508;12.252;2023-02-02T04:38:49;102001.13;;;4.40;64.28
38786;BME280;24535;45.508;12.252;2023-02-02T04:41:15;102000.22;;;4.42;64.27
38786;BME280;24535;45.508;12.252;2023-02-02T04:43:43;102007.22;;;4.39;64.10
38786;BME280;24535;45.508;12.252;2023-02-02T04:46:09;102004.63;;;4.39;64.01
38786;BME280;24535;45.508;12.252;2023-02-02T04:48:34;102002.91;;;4.38;63.45
38786;BME280;24535;45.508;12.252;2023-02-02T04:51:02;101997.75;;;4.35;63.91
38786;BME280;24535;45.508;12.252;2023-02-02T04:53:28;101985.66;;;4.31;64.13
38786;BME280;24535;45.508;12.252;2023-02-02T04:55:54;101995.16;;;4.35;64.25
38786;BME280;24535;45.508;12.252;2023-02-02T04:58:20;101982.13;;;4.33;65.04
38786;BME280;24535;45.508;12.252;2023-02-02T05:00:45;101989.03;;;4.36;64.34
38786;BME280;24535;45.508;12.252;2023-02-02T05:03:11;102010.75;;;4.36;64.53
38786;BME280;24535;45.508;12.252;2023-02-02T05:05:37;102007.34;;;4.33;63.95
38786;BME280;24535;45.508;12.252;2023-02-02T05:08:02;102001.28;;;4.32;64.33
38786;BME280;24535;45.508;12.252;2023-02-02T05:10:28;101988.28;;;4.31;64.24
38786;BME280;24535;45.508;12.252;2023-02-02T05:12:54;102004.81;;;4.30;65.12
38786;BME280;24535;45.508;12.252;2023-02-02T05:15:20;102009.16;;;4.29;65.06
38786;BME280;24535;45.508;12.252;2023-02-02T05:17:47;102010.03;;;4.30;65.11
38786;BME280;24535;45.508;12.252;2023-02-02T05:20:12;101991.69;;;4.33;65.01
38786;BME280;24535;45.508;12.252;2023-02-02T05:22:38;101989.88;;;4.36;65.20
38786;BME280;24535;45.508;12.252;2023-02-02T05:25:05;101999.41;;;4.39;65.02
38786;BME280;24535;45.508;12.252;2023-02-02T05:27:30;102007.22;;;4.39;64.49
38786;BME280;24535;45.508;12.252;2023-02-02T05:29:56;102014.22;;;4.37;64.37
38786;BME280;24535;45.508;12.252;2023-02-02T05:32:21;102006.47;;;4.34;64.71
38786;BME280;24535;45.508;12.252;2023-02-02T05:34:47;102004.72;;;4.34;64.61
38786;BME280;24535;45.508;12.252;2023-02-02T05:37:12;102009.09;;;4.34;64.76
38786;BME280;24535;45.508;12.252;2023-02-02T05:39:38;102017.75;;;4.34;64.91
38786;BME280;24535;45.508;12.252;2023-02-02T05:42:04;102020.31;;;4.36;64.96
38786;BME280;24535;45.508;12.252;2023-02-02T05:44:29;102018.56;;;4.36;64.43
38786;BME280;24535;45.508;12.252;2023-02-02T05:46:55;102016.81;;;4.37;64.11
38786;BME280;24535;45.508;12.252;2023-02-02T05:49:20;102018.63;;;4.35;64.13
38786;BME280;24535;45.508;12.252;2023-02-02T05:51:47;102027.34;;;4.34;63.81
38786;BME280;24535;45.508;12.252;2023-02-02T05:54:14;102023.94;;;4.30;63.81
38786;BME280;24535;45.508;12.252;2023-02-02T05:56:48;102028.34;;;4.27;63.33
38786;BME280;24535;45.508;12.252;2023-02-02T05:59:14;102035.31;;;4.25;63.43
38786;BME280;24535;45.508;12.252;2023-02-02T06:01:39;102031.91;;;4.21;63.77
38786;BME280;24535;45.508;12.252;2023-02-02T06:04:05;102039.81;;;4.18;62.69
38786;BME280;24535;45.508;12.252;2023-02-02T06:06:30;102034.66;;;4.15;63.11
38786;BME280;24535;45.508;12.252;2023-02-02T06:08:56;102039.91;;;4.13;63.53
38786;BME280;24535;45.508;12.252;2023-02-02T06:11:22;102051.28;;;4.09;63.28
38786;BME280;24535;45.508;12.252;2023-02-02T06:13:47;102045.19;;;4.09;63.88
38786;BME280;24535;45.508;12.252;2023-02-02T06:16:13;102040.91;;;4.06;63.87
38786;BME280;24535;45.508;12.252;2023-02-02T06:18:38;102038.25;;;4.08;63.88
38786;BME280;24535;45.508;12.252;2023-02-02T06:21:05;102044.34;;;4.08;63.78
38786;BME280;24535;45.508;12.252;2023-02-02T06:23:32;102036.50;;;4.08;63.85
38786;BME280;24535;45.508;12.252;2023-02-02T06:25:58;102040.00;;;4.07;63.24
38786;BME280;24535;45.508;12.252;2023-02-02T06:28:23;102026.16;;;4.05;63.58
38786;BME280;24535;45.508;12.252;2023-02-02T06:30:49;102037.44;;;4.06;63.70
38786;BME280;24535;45.508;12.252;2023-02-02T06:33:15;102037.50;;;4.03;63.47
38786;BME280;24535;45.508;12.252;2023-02-02T06:35:41;102036.59;;;4.04;64.00
38786;BME280;24535;45.508;12.252;2023-02-02T06:38:06;102048.78;;;4.03;63.71
38786;BME280;24535;45.508;12.252;2023-02-02T06:40:32;102054.84;;;4.04;63.51
38786;BME280;24535;45.508;12.252;2023-02-02T06:42:59;102047.03;;;4.04;64.22
38786;BME280;24535;45.508;12.252;2023-02-02T06:45:25;102041.81;;;4.05;63.92
38786;BME280;24535;45.508;12.252;2023-02-02T06:47:51;102058.25;;;4.07;63.98
38786;BME280;24535;45.508;12.252;2023-02-02T06:50:17;102059.13;;;4.09;63.78
38786;BME280;24535;45.508;12.252;2023-02-02T06:52:48;102063.44;;;4.10;63.60
38786;BME280;24535;45.508;12.252;2023-02-02T06:55:13;102065.03;;;4.17;64.10
38786;BME280;24535;45.508;12.252;2023-02-02T06:57:39;102072.78;;;4.20;63.69
38786;BME280;24535;45.508;12.252;2023-02-02T07:00:05;102070.16;;;4.22;63.61
38786;BME280;24535;45.508;12.252;2023-02-02T07:02:31;102073.59;;;4.24;63.77
38786;BME280;24535;45.508;12.252;2023-02-02T07:04:56;102083.13;;;4.27;62.71
38786;BME280;24535;45.508;12.252;2023-02-02T07:07:21;102079.69;;;4.23;63.26
38786;BME280;24535;45.508;12.252;2023-02-02T07:09:47;102084.06;;;4.21;63.00
38786;BME280;24535;45.508;12.252;2023-02-02T07:12:12;102087.56;;;4.20;62.97
38786;BME280;24535;45.508;12.252;2023-02-02T07:14:38;102078.84;;;4.21;63.19
38786;BME280;24535;45.508;12.252;2023-02-02T07:17:03;102083.16;;;4.24;63.61
38786;BME280;24535;45.508;12.252;2023-02-02T07:19:29;102083.91;;;4.30;63.83
38786;BME280;24535;45.508;12.252;2023-02-02T07:21:54;102088.19;;;4.33;63.81
38786;BME280;24535;45.508;12.252;2023-02-02T07:24:20;102082.97;;;4.33;63.82
38786;BME280;24535;45.508;12.252;2023-02-02T07:26:45;102087.25;;;4.38;64.25
38786;BME280;24535;45.508;12.252;2023-02-02T07:29:11;102074.09;;;4.43;64.10
38786;BME280;24535;45.508;12.252;2023-02-02T07:31:38;102085.34;;;4.45;64.20
38786;BME280;24535;45.508;12.252;2023-02-02T07:34:04;102069.59;;;4.50;64.06
38786;BME280;24535;45.508;12.252;2023-02-02T07:36:30;102081.69;;;4.55;64.23
38786;BME280;24535;45.508;12.252;2023-02-02T07:38:55;102089.47;;;4.58;64.56
38786;BME280;24535;45.508;12.252;2023-02-02T07:41:26;102103.25;;;4.63;64.52
38786;BME280;24535;45.508;12.252;2023-02-02T07:43:52;102091.03;;;4.65;64.61
38786;BME280;24535;45.508;12.252;2023-02-02T07:46:18;102103.97;;;4.71;64.42
38786;BME280;24535;45.508;12.252;2023-02-02T07:48:43;102109.09;;;4.76;64.66
38786;BME280;24535;45.508;12.252;2023-02-02T07:51:14;102121.94;;;4.87;64.79
38786;BME280;24535;45.508;12.252;2023-02-02T07:53:49;102113.06;;;4.94;64.64
38786;BME280;24535;45.508;12.252;2023-02-02T07:56:20;102126.91;;;4.97;64.43
38786;BME280;24535;45.508;12.252;2023-02-02T07:58:47;102122.44;;;5.04;65.02
38786;BME280;24535;45.508;12.252;2023-02-02T08:01:14;102102.44;;;5.03;64.63
38786;BME280;24535;45.508;12.252;2023-02-02T08:03:40;102124.88;;;5.10;64.71
38786;BME280;24535;45.508;12.252;2023-02-02T08:06:18;102108.97;;;5.23;64.90
38786;BME280;24535;45.508;12.252;2023-02-02T08:08:44;102104.47;;;5.29;64.39
38786;BME280;24535;45.508;12.252;2023-02-02T08:11:12;102112.06;;;5.40;64.64
38786;BME280;24535;45.508;12.252;2023-02-02T08:13:39;102087.50;;;5.47;64.13
38786;BME280;24535;45.508;12.252;2023-02-02T08:16:05;102099.56;;;5.53;63.87
38786;BME280;24535;45.508;12.252;2023-02-02T08:18:32;102099.25;;;5.65;64.23
38786;BME280;24535;45.508;12.252;2023-02-02T08:21:01;102093.69;;;5.79;64.50
38786;BME280;24535;45.508;12.252;2023-02-02T08:23:27;102111.72;;;5.89;63.84
38786;BME280;24535;45.508;12.252;2023-02-02T08:25:54;102116.81;;;5.97;63.68
38786;BME280;24535;45.508;12.252;2023-02-02T08:28:29;102099.09;;;6.08;63.68
38786;BME280;24535;45.508;12.252;2023-02-02T08:30:54;102120.78;;;6.12;63.65
38786;BME280;24535;45.508;12.252;2023-02-02T08:33:20;102109.16;;;6.22;63.06
38786;BME280;24535;45.508;12.252;2023-02-02T08:35:46;102098.66;;;6.24;63.68
38786;BME280;24535;45.508;12.252;2023-02-02T08:38:11;102115.88;;;6.32;63.50
38786;BME280;24535;45.508;12.252;2023-02-02T08:40:37;102098.09;;;6.43;63.81
38786;BME280;24535;45.508;12.252;2023-02-02T08:43:02;102104.03;;;6.50;63.16
38786;BME280;24535;45.508;12.252;2023-02-02T08:45:28;102105.63;;;6.56;63.56
38786;BME280;24535;45.508;12.252;2023-02-02T08:47:54;102104.41;;;6.67;63.97
38786;BME280;24535;45.508;12.252;2023-02-02T08:50:19;102119.69;;;6.83;63.67
38786;BME280;24535;45.508;12.252;2023-02-02T08:52:45;102121.88;;;6.98;63.73
38786;BME280;24535;45.508;12.252;2023-02-02T08:55:10;102124.94;;;7.12;63.59
38786;BME280;24535;45.508;12.252;2023-02-02T08:57:36;102130.72;;;7.24;63.30
38786;BME280;24535;45.508;12.252;2023-02-02T09:00:03;102118.13;;;7.35;63.08
38786;BME280;24535;45.508;12.252;2023-02-02T09:02:29;102124.84;;;7.43;63.50
38786;BME280;24535;45.508;12.252;2023-02-02T09:04:54;102131.72;;;7.48;62.60
38786;BME280;24535;45.508;12.252;2023-02-02T09:07:20;102121.84;;;7.56;62.89
38786;BME280;24535;45.508;12.252;2023-02-02T09:09:46;102127.59;;;7.67;63.79
38786;BME280;24535;45.508;12.252;2023-02-02T09:12:11;102142.97;;;7.78;63.82
38786;BME280;24535;45.508;12.252;2023-02-02T09:14:36;102138.16;;;7.92;63.65
38786;BME280;24535;45.508;12.252;2023-02-02T09:17:02;102144.06;;;7.99;63.40
38786;BME280;24535;45.508;12.252;2023-02-02T09:19:28;102146.31;;;8.09;62.71
38786;BME280;24535;45.508;12.252;2023-02-02T09:21:53;102130.38;;;8.15;63.11
38786;BME280;24535;45.508;12.252;2023-02-02T09:24:18;102137.91;;;8.25;63.41
38786;BME280;24535;45.508;12.252;2023-02-02T09:26:44;102127.09;;;8.34;62.48
38786;BME280;24535;45.508;12.252;2023-02-02T09:29:12;102123.31;;;8.42;62.67
38786;BME280;24535;45.508;12.252;2023-02-02T09:31:38;102128.28;;;8.50;62.64
38786;BME280;24535;45.508;12.252;2023-02-02T09:34:06;102115.91;;;8.54;62.17
38786;BME280;24535;45.508;12.252;2023-02-02T09:36:32;102131.47;;;8.60;62.61
38786;BME280;24535;45.508;12.252;2023-02-02T09:38:58;102131.22;;;8.66;62.15
38786;BME280;24535;45.508;12.252;2023-02-02T09:41:49;102137.88;;;8.76;61.83
38786;BME280;24535;45.508;12.252;2023-02-02T09:50:25;102145.63;;;9.03;62.41
38786;BME280;24535;45.508;12.252;2023-02-02T09:53:12;102150.41;;;9.15;61.64
38786;BME280;24535;45.508;12.252;2023-02-02T09:55:45;102157.72;;;9.30;62.21
38786;BME280;24535;45.508;12.252;2023-02-02T09:58:25;102151.13;;;9.42;61.77
38786;BME280;24535;45.508;12.252;2023-02-02T10:01:10;102169.06;;;9.54;61.43
38786;BME280;24535;45.508;12.252;2023-02-02T10:03:59;102160.88;;;9.62;60.30
38786;BME280;24535;45.508;12.252;2023-02-02T10:06:37;102156.22;;;9.69;61.44
38786;BME280;24535;45.508;12.252;2023-02-02T10:11:51;102152.94;;;9.84;60.87
38786;BME280;24535;45.508;12.252;2023-02-02T10:14:23;102149.22;;;9.89;60.45
38786;BME280;24535;45.508;12.252;2023-02-02T10:16:53;102152.28;;;10.01;61.03
38786;BME280;24535;45.508;12.252;2023-02-02T10:19:20;102136.09;;;10.10;61.04
38786;BME280;24535;45.508;12.252;2023-02-02T10:22:12;102137.41;;;10.20;60.72
38786;BME280;24535;45.508;12.252;2023-02-02T10:24:39;102118.78;;;10.25;60.68
38786;BME280;24535;45.508;12.252;2023-02-02T10:27:13;102129.84;;;10.33;61.12
38786;BME280;24535;45.508;12.252;2023-02-02T10:30:00;102122.22;;;10.47;59.88
38786;BME280;24535;45.508;12.252;2023-02-02T10:32:34;102126.16;;;10.57;60.66
38786;BME280;24535;45.508;12.252;2023-02-02T10:35:37;102128.09;;;10.73;59.71
38786;BME280;24535;45.508;12.252;2023-02-02T10:41:42;102126.25;;;10.94;57.98
38786;BME280;24535;45.508;12.252;2023-02-02T10:46:52;102110.44;;;11.12;58.06
38786;BME280;24535;45.508;12.252;2023-02-02T10:49:29;102109.38;;;11.17;53.96
38786;BME280;24535;45.508;12.252;2023-02-02T10:54:52;102112.63;;;11.22;55.36
38786;BME280;24535;45.508;12.252;2023-02-02T11:00:26;102113.34;;;11.25;55.01
38786;BME280;24535;45.508;12.252;2023-02-02T11:02:52;102109.88;;;11.25;55.47
38786;BME280;24535;45.508;12.252;2023-02-02T11:05:23;102095.91;;;11.23;56.08
38786;BME280;24535;45.508;12.252;2023-02-02T11:08:18;102102.97;;;11.22;56.33
38786;BME280;24535;45.508;12.252;2023-02-02T11:10:47;102096.91;;;11.20;56.20
38786;BME280;24535;45.508;12.252;2023-02-02T11:13:28;102102.16;;;11.20;55.45
38786;BME280;24535;45.508;12.252;2023-02-02T11:16:28;102100.59;;;11.16;54.58
38786;BME280;24535;45.508;12.252;2023-02-02T11:18:54;102104.22;;;11.13;55.15
38786;BME280;24535;45.508;12.252;2023-02-02T11:21:33;102104.22;;;11.13;54.95
38786;BME280;24535;45.508;12.252;2023-02-02T11:24:06;102108.66;;;11.13;55.21
38786;BME280;24535;45.508;12.252;2023-02-02T11:27:22;102096.31;;;11.13;54.88
38786;BME280;24535;45.508;12.252;2023-02-02T11:29:44;102092.13;;;11.09;55.05
38786;BME280;24535;45.508;12.252;2023-02-02T11:32:27;102087.69;;;11.10;55.46
38786;BME280;24535;45.508;12.252;2023-02-02T11:37:36;102082.63;;;11.05;55.58
38786;BME280;24535;45.508;12.252;2023-02-02T11:43:03;102080.19;;;11.02;55.88
38786;BME280;24535;45.508;12.252;2023-02-02T11:45:33;102078.44;;;11.01;55.86
38786;BME280;24535;45.508;12.252;2023-02-02T11:48:21;102076.75;;;11.00;55.08
38786;BME280;24535;45.508;12.252;2023-02-02T11:50:47;102072.41;;;10.99;55.74
38786;BME280;24535;45.508;12.252;2023-02-02T11:53:59;102074.94;;;11.01;54.88
38786;BME280;24535;45.508;12.252;2023-02-02T11:56:19;102069.75;;;10.99;55.30
38786;BME280;24535;45.508;12.252;2023-02-02T11:58:54;102066.34;;;10.97;56.13
38786;BME280;24535;45.508;12.252;2023-02-02T12:03:49;102054.22;;;10.93;57.18
38786;BME280;24535;45.508;12.252;2023-02-02T12:08:43;102035.63;;;10.96;56.96
38786;BME280;24535;45.508;12.252;2023-02-02T12:11:20;102029.59;;;10.94;56.54
38786;BME280;24535;45.508;12.252;2023-02-02T12:14:30;102025.09;;;10.96;55.05
38786;BME280;24535;45.508;12.252;2023-02-02T12:22:44;102012.88;;;10.94;56.39
38786;BME280;24535;45.508;12.252;2023-02-02T12:37:10;101971.78;;;10.89;57.13
38786;BME280;24535;45.508;12.252;2023-02-02T12:43:05;101961.47;;;10.85;57.65
38786;BME280;24535;45.508;12.252;2023-02-02T12:48:16;101961.69;;;10.80;57.94
38786;BME280;24535;45.508;12.252;2023-02-02T12:51:05;101962.72;;;10.78;57.65
38786;BME280;24535;45.508;12.252;2023-02-02T12:54:10;101965.50;;;10.75;57.53
38786;BME280;24535;45.508;12.252;2023-02-02T12:57:10;101959.41;;;10.73;58.08
38786;BME280;24535;45.508;12.252;2023-02-02T13:02:25;101964.63;;;10.74;57.80
38786;BME280;24535;45.508;12.252;2023-02-02T13:05:21;101963.69;;;10.75;57.62
38786;BME280;24535;45.508;12.252;2023-02-02T13:08:07;101956.78;;;10.73;57.46
38786;BME280;24535;45.508;12.252;2023-02-02T13:10:37;101950.59;;;10.74;58.08
38786;BME280;24535;45.508;12.252;2023-02-02T13:13:14;101946.19;;;10.74;56.02
38786;BME280;24535;45.508;12.252;2023-02-02T13:15:44;101946.25;;;10.73;57.26
38786;BME280;24535;45.508;12.252;2023-02-02T13:18:35;101946.09;;;10.76;56.58
38786;BME280;24535;45.508;12.252;2023-02-02T13:21:10;101951.38;;;10.76;57.63
38786;BME280;24535;45.508;12.252;2023-02-02T13:23:46;101954.00;;;10.76;57.93
38786;BME280;24535;45.508;12.252;2023-02-02T13:26:22;101957.50;;;10.76;57.37
38786;BME280;24535;45.508;12.252;2023-02-02T13:31:57;101961.78;;;10.79;56.75
38786;BME280;24535;45.508;12.252;2023-02-02T13:42:42;101948.59;;;10.79;56.56
38786;BME280;24535;45.508;12.252;2023-02-02T13:45:31;101953.06;;;10.77;56.84
38786;BME280;24535;45.508;12.252;2023-02-02T13:48:28;101954.81;;;10.78;56.48
38786;BME280;24535;45.508;12.252;2023-02-02T13:56:43;101960.06;;;10.78;57.88
38786;BME280;24535;45.508;12.252;2023-02-02T14:01:57;101960.22;;;10.75;58.10
38786;BME280;24535;45.508;12.252;2023-02-02T14:04:27;101944.44;;;10.73;58.64
38786;BME280;24535;45.508;12.252;2023-02-02T14:06:59;101968.13;;;10.75;58.45
38786;BME280;24535;45.508;12.252;2023-02-02T14:09:33;101958.50;;;10.74;57.64
38786;BME280;24535;45.508;12.252;2023-02-02T14:12:08;101962.84;;;10.75;58.82
38786;BME280;24535;45.508;12.252;2023-02-02T14:14:36;101979.59;;;10.74;58.72
38786;BME280;24535;45.508;12.252;2023-02-02T14:19:50;101964.84;;;10.70;58.67
38786;BME280;24535;45.508;12.252;2023-02-02T14:28:00;101994.44;;;10.57;59.28
38786;BME280;24535;45.508;12.252;2023-02-02T14:30:30;101995.31;;;10.56;59.61
38786;BME280;24535;45.508;12.252;2023-02-02T14:33:24;101999.97;;;10.51;59.60
38786;BME280;24535;45.508;12.252;2023-02-02T14:38:47;102006.22;;;10.49;59.65
38786;BME280;24535;45.508;12.252;2023-02-02T14:41:30;102014.28;;;10.46;59.41
38786;BME280;24535;45.508;12.252;2023-02-02T14:44:16;102011.66;;;10.46;59.87
38786;BME280;24535;45.508;12.252;2023-02-02T14:46:42;102018.63;;;10.47;59.14
38786;BME280;24535;45.508;12.252;2023-02-02T14:49:23;102015.97;;;10.47;59.46
38786;BME280;24535;45.508;12.252;2023-02-02T14:51:55;102022.09;;;10.47;59.34
38786;BME280;24535;45.508;12.252;2023-02-02T14:54:27;102016.75;;;10.49;59.23
38786;BME280;24535;45.508;12.252;2023-02-02T14:57:00;102019.47;;;10.47;59.75